Time;durP1;ratioP1;P1;durP2;ratioP2;P2;SDS_P1;SDS_P2;PMS_P1;PMS_P2;Temp;Humidity;BMP_temperature;BMP_pressure;BME280_temperature;BME280_humidity;BME280_pressure;Samples;Min_cycle;Max_cycle;Signal;HPM_P1;HPM_P2
2022/01/12 00:02:13;;;;;;;43.90;20.70;;;1.90;99.90;;;;;;4973476;28;20216;-93
2022/01/12 00:04:39;;;;;;;37.00;19.60;;;1.90;99.90;;;;;;4958173;28;20519;-92
2022/01/12 00:07:05;;;;;;;45.40;20.07;;;1.90;99.90;;;;;;4959923;28;20205;-93
2022/01/12 00:09:31;;;;;;;38.17;19.03;;;1.80;99.90;;;;;;4958523;28;20275;-93
2022/01/12 00:11:58;;;;;;;38.40;20.23;;;1.90;99.90;;;;;;4974581;28;20203;-93
2022/01/12 00:14:26;;;;;;;37.20;18.73;;;1.90;99.90;;;;;;4975511;28;20180;-92
2022/01/12 00:16:58;;;;;;;36.23;18.77;;;1.90;99.90;;;;;;4973015;28;20192;-92
2022/01/12 00:19:24;;;;;;;42.53;19.73;;;1.90;99.90;;;;;;4964760;28;20217;-93
2022/01/12 00:21:50;;;;;;;38.30;19.63;;;1.90;99.90;;;;;;4975689;28;20185;-93
2022/01/12 00:24:16;;;;;;;37.53;18.93;;;1.90;99.90;;;;;;4960487;28;20219;-93
2022/01/12 00:33:08;;;;;;;40.03;19.50;;;1.90;99.90;;;;;;4969094;28;20193;-93
2022/01/12 00:34:56;;;;;;;34.40;19.00;;;1.80;99.90;;;;;;4958095;29;20176;-92
2022/01/12 00:37:22;;;;;;;36.37;18.37;;;1.90;99.90;;;;;;4971325;28;20196;-92
2022/01/12 00:39:47;;;;;;;36.40;19.13;;;1.90;99.90;;;;;;4976276;28;20662;-92
2022/01/12 00:42:14;;;;;;;38.30;19.30;;;1.90;99.90;;;;;;4976014;28;20326;-92
2022/01/12 00:44:44;;;;;;;37.27;18.73;;;1.90;99.90;;;;;;4975953;28;20185;-92
2022/01/12 00:47:11;;;;;;;38.60;19.77;;;1.90;99.90;;;;;;4976081;28;20204;-91
2022/01/12 00:49:37;;;;;;;34.33;19.10;;;1.90;99.90;;;;;;4975883;28;20212;-92
2022/01/12 00:52:03;;;;;;;32.77;18.27;;;1.90;99.90;;;;;;4975391;28;20223;-92
2022/01/12 00:54:29;;;;;;;36.03;18.33;;;1.90;99.90;;;;;;4975790;28;20522;-92
2022/01/12 00:56:54;;;;;;;33.07;18.40;;;1.90;99.90;;;;;;4975381;28;20182;-92
2022/01/12 00:59:20;;;;;;;33.77;18.03;;;1.90;99.90;;;;;;4975540;28;20212;-92
2022/01/12 01:01:46;;;;;;;31.17;17.17;;;1.90;99.90;;;;;;4975629;28;20263;-92
2022/01/12 01:04:13;;;;;;;30.40;16.90;;;1.90;99.90;;;;;;4975911;28;20225;-92
2022/01/12 01:06:38;;;;;;;30.97;16.57;;;1.90;99.90;;;;;;4975409;28;20241;-92
2022/01/12 01:09:06;;;;;;;29.53;16.10;;;1.90;99.90;;;;;;4976012;28;20333;-92
2022/01/12 01:11:32;;;;;;;28.77;16.43;;;1.90;99.90;;;;;;4974999;28;20193;-92
2022/01/12 01:14:00;;;;;;;29.73;16.40;;;1.90;99.90;;;;;;4975699;28;20195;-92
2022/01/12 01:27:08;;;;;;;28.20;16.63;;;1.80;99.90;;;;;;4976287;28;20182;-92
2022/01/12 01:29:34;;;;;;;28.70;16.37;;;1.80;99.90;;;;;;4974985;28;20177;-93
2022/01/12 01:32:00;;;;;;;27.43;15.70;;;1.80;99.90;;;;;;4975269;28;20188;-92
2022/01/12 01:34:27;;;;;;;30.67;16.63;;;1.80;99.90;;;;;;4975342;28;20187;-92
2022/01/12 01:36:55;;;;;;;27.97;15.80;;;1.80;99.90;;;;;;4975154;28;20543;-92
2022/01/12 01:39:27;;;;;;;27.47;16.33;;;1.80;99.90;;;;;;4975750;28;20223;-93
2022/01/12 01:42:01;;;;;;;26.03;14.43;;;1.90;99.90;;;;;;4974972;28;20269;-93
2022/01/12 01:55:22;;;;;;;29.70;16.17;;;1.90;99.90;;;;;;4976485;28;20641;-93
2022/01/12 01:57:48;;;;;;;31.33;16.37;;;1.90;99.90;;;;;;4975480;28;20204;-92
2022/01/12 02:00:19;;;;;;;31.03;16.43;;;1.90;99.90;;;;;;4974646;28;20663;-93
2022/01/12 02:02:46;;;;;;;27.00;15.57;;;1.90;99.90;;;;;;4974044;28;20176;-93
2022/01/12 02:05:12;;;;;;;27.63;16.13;;;1.80;99.90;;;;;;4975014;28;20180;-93
2022/01/12 02:07:38;;;;;;;29.03;14.87;;;1.90;99.90;;;;;;4957916;28;20188;-93
2022/01/12 02:10:04;;;;;;;28.20;16.23;;;1.90;99.90;;;;;;4955507;29;20188;-93
2022/01/12 02:12:30;;;;;;;28.00;14.90;;;2.00;99.90;;;;;;4955233;29;20188;-92
2022/01/12 02:15:01;;;;;;;27.47;15.63;;;2.00;99.90;;;;;;4955625;29;20181;-93
2022/01/12 02:17:33;;;;;;;26.33;14.53;;;2.00;99.90;;;;;;4955388;29;20513;-93
2022/01/12 02:36:25;;;;;;;21.87;12.13;;;2.10;99.90;;;;;;4962500;28;20202;-93
2022/01/12 02:41:58;;;;;;;22.03;11.17;;;2.10;99.90;;;;;;4953913;29;20184;-92
2022/01/12 02:55:21;;;;;;;17.97;10.70;;;2.30;99.90;;;;;;4975724;28;20167;-93
2022/01/12 02:57:46;;;;;;;18.87;11.10;;;2.20;99.90;;;;;;4974814;28;20537;-92
2022/01/12 03:00:15;;;;;;;20.63;11.53;;;2.20;99.90;;;;;;4973927;28;20239;-92
2022/01/12 03:02:43;;;;;;;20.43;11.37;;;2.30;99.90;;;;;;4975964;28;20184;-93
2022/01/12 03:06:17;;;;;;;19.60;11.37;;;2.20;99.90;;;;;;4975088;28;20188;-92
2022/01/12 03:08:12;;;;;;;20.63;10.70;;;2.20;99.90;;;;;;4959111;28;20192;-92
2022/01/12 03:10:38;;;;;;;21.87;11.70;;;2.20;99.90;;;;;;4954889;28;20177;-93
2022/01/12 03:13:04;;;;;;;19.20;10.83;;;2.20;99.90;;;;;;4954667;28;20184;-92
2022/01/12 03:15:30;;;;;;;20.40;10.53;;;2.30;99.90;;;;;;4958212;28;20621;-92
2022/01/12 03:17:56;;;;;;;22.17;11.10;;;2.30;99.90;;;;;;4958977;28;20683;-92
2022/01/12 03:20:22;;;;;;;18.30;9.73;;;2.30;99.90;;;;;;4958267;28;20263;-92
2022/01/12 03:22:47;;;;;;;20.80;10.43;;;2.30;99.90;;;;;;4958243;28;20208;-92
2022/01/12 03:25:13;;;;;;;20.47;10.23;;;2.30;99.90;;;;;;4958230;28;20170;-92
2022/01/12 03:27:39;;;;;;;17.97;10.40;;;2.30;99.90;;;;;;4957771;28;20181;-92
2022/01/12 03:30:05;;;;;;;18.30;9.83;;;2.30;99.90;;;;;;4958031;28;20192;-92
2022/01/12 03:32:41;;;;;;;17.93;10.03;;;2.30;99.90;;;;;;4971599;28;20220;-93
2022/01/12 03:35:12;;;;;;;16.23;9.53;;;2.30;99.90;;;;;;4996344;28;20198;-93
2022/01/12 03:38:19;;;;;;;16.00;9.07;;;2.40;99.90;;;;;;4979701;28;20217;-93
2022/01/12 03:40:29;;;;;;;23.60;9.60;;;2.40;99.90;;;;;;4978146;28;20205;-92
2022/01/12 03:42:55;;;;;;;15.33;8.83;;;2.40;99.90;;;;;;4976937;28;20188;-92
2022/01/12 03:45:21;;;;;;;20.50;9.90;;;2.40;99.90;;;;;;4977181;28;20176;-92
2022/01/12 03:47:46;;;;;;;17.33;8.67;;;2.40;99.90;;;;;;4976880;28;20207;-93
2022/01/12 03:50:12;;;;;;;18.47;8.90;;;2.40;99.90;;;;;;4977088;28;20276;-93
2022/01/12 03:52:38;;;;;;;16.30;8.80;;;2.40;99.90;;;;;;4977169;28;20189;-93
2022/01/12 03:55:04;;;;;;;16.63;9.07;;;2.40;99.90;;;;;;4976924;28;20666;-92
2022/01/12 03:57:29;;;;;;;17.10;8.23;;;2.50;99.90;;;;;;4976450;28;20212;-93
2022/01/12 03:59:55;;;;;;;14.17;7.90;;;2.50;99.90;;;;;;4976797;28;20244;-93
2022/01/12 04:02:21;;;;;;;16.90;8.80;;;2.50;99.90;;;;;;4977148;28;20599;-93
2022/01/12 04:05:09;;;;;;;14.33;8.20;;;2.50;99.90;;;;;;4977043;28;20184;-93
2022/01/12 04:10:19;;;;;;;15.07;8.50;;;2.50;99.90;;;;;;4978249;28;20256;-93
2022/01/12 04:12:45;;;;;;;14.23;8.30;;;2.50;99.90;;;;;;4979521;28;20179;-93
2022/01/12 04:15:11;;;;;;;15.07;8.60;;;2.50;99.90;;;;;;4996314;28;20183;-93
2022/01/12 04:17:36;;;;;;;12.77;7.57;;;2.50;99.90;;;;;;4995955;28;20731;-92
2022/01/12 04:20:03;;;;;;;15.00;8.13;;;2.50;99.90;;;;;;4997035;28;20179;-93
2022/01/12 04:25:14;;;;;;;13.90;8.23;;;2.50;99.90;;;;;;4995938;28;20326;-92
2022/01/12 04:27:40;;;;;;;13.70;8.13;;;2.50;99.90;;;;;;4995665;28;20262;-92
2022/01/12 04:30:06;;;;;;;15.77;7.93;;;2.50;99.90;;;;;;4995701;28;20176;-93
2022/01/12 04:32:37;;;;;;;13.83;8.20;;;2.50;99.90;;;;;;4996069;28;20685;-92
2022/01/12 04:35:03;;;;;;;13.80;7.63;;;2.50;99.90;;;;;;4995523;28;20168;-92
2022/01/12 04:37:29;;;;;;;14.83;7.90;;;2.50;99.90;;;;;;4979935;28;20347;-93
2022/01/12 04:39:54;;;;;;;13.63;7.50;;;2.50;99.90;;;;;;4976315;28;20584;-93
2022/01/12 04:42:20;;;;;;;15.10;7.40;;;2.50;99.90;;;;;;4976070;28;20180;-92
2022/01/12 04:44:48;;;;;;;12.97;7.30;;;2.50;99.90;;;;;;4976471;28;20556;-93
2022/01/12 04:47:39;;;;;;;14.50;8.17;;;2.50;99.90;;;;;;4976140;28;20227;-93
2022/01/12 04:50:02;;;;;;;13.27;8.27;;;2.50;99.90;;;;;;4976993;28;20176;-92
2022/01/12 04:52:28;;;;;;;13.00;7.23;;;2.50;99.90;;;;;;4976348;28;20212;-93
2022/01/12 04:54:55;;;;;;;11.17;7.67;;;2.50;99.90;;;;;;4975838;28;20177;-93
2022/01/12 04:57:20;;;;;;;14.67;7.70;;;2.50;99.90;;;;;;4993225;28;20183;-93
2022/01/12 05:00:03;;;;;;;13.47;7.60;;;2.50;99.90;;;;;;4995276;28;20183;-93
2022/01/12 05:08:11;;;;;;;12.73;7.27;;;2.60;99.90;;;;;;4957775;29;20297;-93
2022/01/12 05:13:23;;;;;;;12.33;7.63;;;2.60;99.90;;;;;;4957533;29;20209;-93
2022/01/12 05:15:49;;;;;;;12.23;7.37;;;2.60;99.90;;;;;;4956242;28;20216;-92
2022/01/12 05:18:15;;;;;;;11.47;7.60;;;2.50;99.90;;;;;;4956193;28;20296;-92
2022/01/12 05:20:41;;;;;;;11.43;7.33;;;2.60;99.90;;;;;;4974642;28;20306;-91
2022/01/12 05:23:06;;;;;;;11.97;7.53;;;2.50;99.90;;;;;;4975487;28;20192;-93
2022/01/12 05:25:32;;;;;;;11.93;7.43;;;2.50;99.90;;;;;;4974977;28;20183;-92
2022/01/12 05:27:58;;;;;;;14.60;7.17;;;2.60;99.90;;;;;;4976180;28;20604;-93
2022/01/12 05:30:24;;;;;;;16.97;7.63;;;2.60;99.90;;;;;;4975035;28;20234;-93
2022/01/12 05:32:49;;;;;;;14.40;7.27;;;2.50;99.90;;;;;;4975164;28;20489;-92
2022/01/12 05:35:17;;;;;;;11.57;7.20;;;2.60;99.90;;;;;;4975531;28;20645;-93
2022/01/12 05:37:47;;;;;;;13.67;7.37;;;2.60;99.90;;;;;;4975556;28;20212;-92
2022/01/12 05:40:14;;;;;;;15.20;7.17;;;2.60;99.90;;;;;;4975308;28;20184;-92
2022/01/12 05:42:40;;;;;;;12.00;7.10;;;2.50;99.90;;;;;;4975112;28;20173;-93
2022/01/12 05:45:08;;;;;;;14.43;6.77;;;2.60;99.90;;;;;;4975225;28;20498;-92
2022/01/12 05:50:09;;;;;;;13.73;6.50;;;2.60;99.90;;;;;;4995238;28;20238;-93
2022/01/12 05:52:34;;;;;;;11.43;7.03;;;2.60;99.90;;;;;;4994195;28;20176;-92
2022/01/12 05:55:02;;;;;;;12.03;6.53;;;2.60;99.90;;;;;;4994147;28;20180;-92
2022/01/12 05:57:30;;;;;;;12.90;6.17;;;2.60;99.90;;;;;;4994051;28;20168;-93
2022/01/12 05:59:59;;;;;;;14.53;7.27;;;2.60;99.90;;;;;;4994006;28;20334;-92
2022/01/12 06:02:25;;;;;;;12.07;7.03;;;2.60;99.90;;;;;;4994040;28;20180;-92
2022/01/12 06:04:52;;;;;;;10.73;6.07;;;2.60;99.90;;;;;;4993311;28;20191;-92
2022/01/12 06:07:17;;;;;;;13.73;7.10;;;2.60;99.90;;;;;;4979871;28;20196;-93
2022/01/12 06:09:43;;;;;;;10.60;6.67;;;2.60;99.90;;;;;;4975170;28;20181;-93
2022/01/12 06:12:10;;;;;;;10.27;6.33;;;2.60;99.90;;;;;;4975139;28;20188;-93
2022/01/12 06:14:36;;;;;;;14.10;6.63;;;2.60;99.90;;;;;;4974898;28;20180;-92
2022/01/12 06:17:02;;;;;;;12.90;6.43;;;2.60;99.90;;;;;;4974619;28;20193;-93
2022/01/12 06:19:28;;;;;;;12.10;6.90;;;2.50;99.90;;;;;;4974494;28;20577;-93
2022/01/12 06:21:53;;;;;;;11.57;6.60;;;2.50;99.90;;;;;;4974885;28;20188;-93
2022/01/12 06:24:19;;;;;;;13.87;6.57;;;2.50;99.90;;;;;;4974079;28;20184;-92
2022/01/12 06:26:46;;;;;;;15.23;6.97;;;2.50;99.90;;;;;;4974333;28;20173;-93
2022/01/12 06:29:27;;;;;;;9.57;6.00;;;2.50;99.90;;;;;;4974040;28;20187;-92
2022/01/12 06:31:56;;;;;;;9.03;6.10;;;2.50;99.90;;;;;;4974955;28;20169;-93
2022/01/12 06:34:22;;;;;;;11.27;6.07;;;2.50;99.90;;;;;;4974412;28;20180;-93
2022/01/12 06:36:48;;;;;;;13.10;7.07;;;2.60;99.90;;;;;;4974826;28;20232;-92
2022/01/12 06:39:17;;;;;;;11.50;6.53;;;2.60;99.90;;;;;;4984261;28;20220;-93
2022/01/12 06:41:44;;;;;;;10.27;6.00;;;2.60;99.90;;;;;;4989805;28;20176;-92
2022/01/12 06:44:15;;;;;;;11.00;7.23;;;2.60;99.90;;;;;;4972570;28;20180;-92
2022/01/12 06:46:42;;;;;;;12.40;7.03;;;2.70;99.90;;;;;;4974762;28;20177;-92
2022/01/12 06:49:08;;;;;;;14.13;7.97;;;2.80;99.90;;;;;;4975592;28;20619;-93
2022/01/12 06:51:34;;;;;;;16.70;8.67;;;2.80;99.90;;;;;;4978840;28;20307;-92
2022/01/12 06:53:59;;;;;;;16.33;8.67;;;2.70;99.90;;;;;;4977496;28;20264;-93
2022/01/12 06:56:25;;;;;;;16.97;8.70;;;2.70;99.90;;;;;;4986189;28;20187;-94
2022/01/12 06:58:51;;;;;;;19.50;8.57;;;2.80;99.90;;;;;;4999046;28;20225;-92
2022/01/12 07:01:17;;;;;;;13.20;8.47;;;2.80;99.90;;;;;;4998181;28;20231;-92
2022/01/12 07:03:42;;;;;;;15.33;9.23;;;2.70;99.90;;;;;;4998139;28;20188;-92
2022/01/12 07:06:08;;;;;;;15.47;9.57;;;2.80;99.90;;;;;;4992689;28;20723;-91
2022/01/12 07:08:34;;;;;;;14.73;9.10;;;2.80;99.90;;;;;;4977721;28;20189;-92
2022/01/12 07:11:00;;;;;;;16.20;9.83;;;2.80;99.90;;;;;;4978317;28;20200;-91
2022/01/12 07:13:26;;;;;;;19.57;10.37;;;2.80;99.90;;;;;;4978083;28;20188;-92
2022/01/12 07:15:52;;;;;;;15.37;10.27;;;2.80;99.90;;;;;;4979234;28;20255;-92
2022/01/12 07:18:21;;;;;;;18.03;10.77;;;2.80;99.90;;;;;;4978751;28;20548;-92
2022/01/12 07:20:48;;;;;;;18.87;10.67;;;2.70;99.90;;;;;;4977780;28;20674;-92
2022/01/12 07:23:14;;;;;;;22.23;10.83;;;2.80;99.90;;;;;;4977622;28;20181;-92
2022/01/12 07:25:43;;;;;;;17.07;11.37;;;2.80;99.90;;;;;;4977064;28;20207;-92
2022/01/12 07:28:09;;;;;;;17.47;11.63;;;2.80;99.90;;;;;;4974258;28;20254;-91
2022/01/12 07:30:34;;;;;;;20.90;12.17;;;2.70;99.90;;;;;;4976798;28;20185;-91
2022/01/12 07:33:00;;;;;;;26.93;12.10;;;2.70;99.90;;;;;;4976508;28;20678;-94
2022/01/12 07:35:27;;;;;;;21.07;13.23;;;2.70;99.90;;;;;;4976512;28;20177;-93
2022/01/12 07:37:53;;;;;;;25.43;12.37;;;2.70;99.90;;;;;;4977736;28;20204;-92
2022/01/12 07:40:19;;;;;;;22.23;13.43;;;2.70;99.90;;;;;;4977239;28;20255;-92
2022/01/12 07:42:45;;;;;;;25.77;13.73;;;2.70;99.90;;;;;;4977205;28;20181;-92
2022/01/12 07:45:11;;;;;;;27.50;14.70;;;2.70;99.90;;;;;;4977064;28;20192;-92
2022/01/12 07:47:37;;;;;;;27.53;14.83;;;2.70;99.90;;;;;;4977224;28;20200;-92
2022/01/12 07:50:05;;;;;;;21.83;13.73;;;2.70;99.90;;;;;;4977323;28;20185;-92
2022/01/12 07:52:32;;;;;;;22.57;14.47;;;2.70;99.90;;;;;;4978432;28;20176;-92
2022/01/12 07:54:58;;;;;;;29.07;15.17;;;2.70;99.90;;;;;;4980479;28;20188;-92
2022/01/12 07:57:28;;;;;;;24.40;14.90;;;2.70;99.90;;;;;;4981578;28;20185;-92
2022/01/12 07:59:54;;;;;;;25.93;14.07;;;2.70;99.90;;;;;;4985213;28;20276;-92
2022/01/12 08:02:20;;;;;;;27.30;15.40;;;2.70;99.90;;;;;;4988248;28;20208;-92
2022/01/12 08:04:45;;;;;;;29.27;14.70;;;2.80;99.90;;;;;;4982753;28;20188;-92
2022/01/12 08:07:11;;;;;;;27.97;15.80;;;2.90;99.90;;;;;;4976785;28;20279;-92
2022/01/12 08:09:38;;;;;;;27.70;15.53;;;2.90;99.90;;;;;;4977250;28;20251;-91
2022/01/12 08:12:04;;;;;;;25.50;15.13;;;2.90;99.90;;;;;;4977240;28;20666;-91
2022/01/12 08:14:30;;;;;;;24.93;15.50;;;3.00;99.90;;;;;;4977325;28;20188;-91
2022/01/12 08:16:56;;;;;;;25.10;14.43;;;3.00;99.90;;;;;;4976918;28;20247;-91
2022/01/12 08:19:23;;;;;;;27.67;14.80;;;3.00;99.90;;;;;;4978038;28;20371;-92
2022/01/12 08:21:49;;;;;;;30.03;15.93;;;3.00;99.90;;;;;;4976724;28;20220;-93
2022/01/12 08:24:16;;;;;;;27.77;16.10;;;3.00;99.90;;;;;;4976058;28;20214;-91
2022/01/12 08:26:43;;;;;;;27.93;15.43;;;3.00;99.90;;;;;;4982013;28;20232;-92
2022/01/12 08:29:11;;;;;;;27.17;15.83;;;3.00;99.90;;;;;;4974803;28;20296;-92
2022/01/12 08:31:37;;;;;;;30.30;16.87;;;3.00;99.90;;;;;;4977083;28;20183;-92
2022/01/12 08:34:03;;;;;;;28.83;16.43;;;3.00;99.90;;;;;;4976888;28;20243;-92
2022/01/12 08:36:29;;;;;;;34.23;16.80;;;3.00;99.90;;;;;;4975753;28;20520;-91
2022/01/12 08:38:55;;;;;;;31.00;17.10;;;3.00;99.90;;;;;;4976632;28;20212;-92
2022/01/12 08:41:22;;;;;;;28.73;17.73;;;3.00;99.90;;;;;;4975365;28;20279;-91
2022/01/12 08:43:47;;;;;;;29.03;17.20;;;3.10;99.90;;;;;;4976383;28;20192;-92
2022/01/12 08:46:14;;;;;;;28.20;17.70;;;3.10;99.90;;;;;;4982222;28;20180;-92
2022/01/12 08:48:39;;;;;;;28.63;18.07;;;3.10;99.90;;;;;;4980934;28;20192;-92
2022/01/12 08:51:05;;;;;;;32.87;17.93;;;3.20;99.90;;;;;;4975579;28;20184;-92
2022/01/12 08:53:31;;;;;;;35.70;18.57;;;3.20;99.90;;;;;;4976591;28;20181;-92
2022/01/12 08:55:57;;;;;;;33.37;19.27;;;3.20;99.90;;;;;;4976199;28;20222;-92
2022/01/12 08:58:23;;;;;;;35.40;19.70;;;3.20;99.90;;;;;;4975584;28;20257;-92
2022/01/12 09:00:48;;;;;;;37.33;20.40;;;3.10;99.90;;;;;;4984587;28;20228;-91
2022/01/12 09:03:14;;;;;;;39.83;22.27;;;3.20;99.90;;;;;;4963385;28;20200;-92
2022/01/12 09:05:40;;;;;;;38.73;20.80;;;3.20;99.90;;;;;;4957241;28;20181;-93
2022/01/12 09:08:07;;;;;;;37.37;20.53;;;3.20;99.90;;;;;;4988593;28;20187;-93
2022/01/12 09:10:34;;;;;;;36.43;20.90;;;3.20;99.90;;;;;;4991338;28;20192;-92
2022/01/12 09:13:00;;;;;;;36.07;22.30;;;3.20;99.90;;;;;;4974674;28;20184;-92
2022/01/12 09:15:26;;;;;;;38.13;22.30;;;3.20;99.90;;;;;;4975561;28;20188;-91
2022/01/12 09:17:56;;;;;;;38.07;22.13;;;3.20;99.90;;;;;;4975386;28;20212;-93
2022/01/12 09:20:23;;;;;;;36.50;21.93;;;3.30;99.90;;;;;;4982660;28;20198;-92
2022/01/12 09:22:50;;;;;;;37.40;22.03;;;3.30;99.90;;;;;;4994488;28;20230;-92
2022/01/12 09:25:16;;;;;;;34.97;20.47;;;3.30;99.90;;;;;;4995339;28;20206;-92
2022/01/12 09:27:42;;;;;;;40.90;22.00;;;3.30;99.90;;;;;;4978436;28;20602;-92
2022/01/12 09:30:10;;;;;;;37.67;21.80;;;3.30;99.90;;;;;;4975226;28;20183;-92
2022/01/12 09:32:36;;;;;;;38.93;22.30;;;3.30;99.90;;;;;;4975191;28;20634;-92
2022/01/12 09:35:03;;;;;;;39.00;21.87;;;3.30;99.90;;;;;;4971883;28;20189;-93
2022/01/12 09:37:29;;;;;;;36.63;23.07;;;3.30;99.90;;;;;;4974307;28;20525;-92
2022/01/12 09:39:55;;;;;;;46.03;23.73;;;3.40;99.90;;;;;;4974013;28;20619;-92
2022/01/12 09:42:21;;;;;;;39.17;22.90;;;3.50;99.90;;;;;;4981328;28;20182;-92
2022/01/12 09:44:48;;;;;;;41.33;24.23;;;3.40;99.90;;;;;;4974431;28;20184;-92
2022/01/12 09:47:15;;;;;;;44.53;24.10;;;3.40;99.90;;;;;;4974836;28;20189;-93
2022/01/12 09:49:43;;;;;;;39.10;23.33;;;3.40;99.90;;;;;;4975049;28;20502;-92
2022/01/12 09:52:09;;;;;;;42.53;24.00;;;3.40;99.90;;;;;;4975256;28;20200;-92
2022/01/12 09:54:36;;;;;;;44.37;24.20;;;3.40;99.90;;;;;;4987564;28;20218;-91
2022/01/12 09:57:03;;;;;;;39.23;23.53;;;3.40;99.90;;;;;;4979566;28;20243;-91
2022/01/12 09:59:29;;;;;;;45.73;24.80;;;3.40;99.90;;;;;;4974580;28;20208;-93
2022/01/12 10:01:56;;;;;;;48.20;25.97;;;3.40;99.90;;;;;;4974201;28;20235;-92
2022/01/12 10:04:28;;;;;;;45.57;25.80;;;3.40;99.90;;;;;;4977890;28;20673;-92
2022/01/12 10:06:58;;;;;;;43.73;26.40;;;3.40;99.90;;;;;;4990477;28;20257;-92
2022/01/12 10:09:31;;;;;;;49.57;25.37;;;3.30;99.90;;;;;;4974981;28;20208;-92
2022/01/12 10:12:04;;;;;;;51.43;24.77;;;3.30;99.90;;;;;;4975532;28;20215;-90
2022/01/12 10:14:44;;;;;;;51.07;25.93;;;3.30;99.90;;;;;;4974351;28;20181;-91
2022/01/12 10:17:11;;;;;;;53.30;26.37;;;3.30;99.90;;;;;;4974877;28;20184;-91
2022/01/12 10:19:37;;;;;;;47.10;25.40;;;3.40;99.90;;;;;;4975342;28;20217;-91
2022/01/12 10:22:06;;;;;;;49.43;27.00;;;3.40;99.90;;;;;;4975065;28;20193;-92
2022/01/12 10:24:39;;;;;;;52.77;28.13;;;3.40;99.90;;;;;;4974449;28;20192;-92
2022/01/12 10:27:19;;;;;;;50.23;26.93;;;3.40;99.90;;;;;;4974471;28;20184;-92
2022/01/12 10:29:46;;;;;;;47.70;26.37;;;3.40;99.90;;;;;;4975662;28;20599;-91
2022/01/12 10:32:17;;;;;;;52.10;28.07;;;3.40;99.90;;;;;;4974234;28;20196;-92
2022/01/12 10:34:45;;;;;;;58.10;29.53;;;3.40;99.90;;;;;;4974926;28;20189;-93
2022/01/12 10:37:17;;;;;;;50.37;28.07;;;3.40;99.90;;;;;;4973325;28;20211;-94
2022/01/12 10:39:48;;;;;;;49.43;27.97;;;3.50;99.90;;;;;;4974657;28;20558;-93
2022/01/12 10:42:17;;;;;;;59.07;30.03;;;3.50;99.90;;;;;;4975006;28;20560;-94
2022/01/12 10:44:53;;;;;;;57.93;29.77;;;3.50;99.90;;;;;;4974197;28;20215;-93
2022/01/12 10:47:29;;;;;;;57.77;30.00;;;3.50;99.90;;;;;;4973978;28;20176;-92
2022/01/12 10:49:56;;;;;;;64.93;31.93;;;3.50;99.90;;;;;;4985273;28;20708;-95
2022/01/12 10:52:24;;;;;;;54.73;29.90;;;3.50;99.90;;;;;;4993184;28;20615;-92
2022/01/12 10:54:52;;;;;;;66.30;32.73;;;3.50;99.90;;;;;;4994201;28;20262;-92
2022/01/12 10:57:32;;;;;;;68.10;33.30;;;3.50;99.90;;;;;;4994592;28;20188;-93
2022/01/12 11:00:06;;;;;;;73.37;33.80;;;3.60;99.90;;;;;;4993535;28;20234;-92
2022/01/12 11:02:33;;;;;;;63.77;31.73;;;3.60;99.90;;;;;;4994411;28;20231;-93
2022/01/12 11:05:00;;;;;;;64.27;32.13;;;3.60;99.90;;;;;;4983734;28;20204;-93
2022/01/12 11:07:27;;;;;;;67.90;32.10;;;3.80;99.90;;;;;;4977892;28;20177;-94
2022/01/12 11:09:58;;;;;;;59.87;31.40;;;3.80;99.90;;;;;;4974836;28;20185;-93
2022/01/12 11:12:25;;;;;;;65.50;32.47;;;3.70;99.90;;;;;;4975276;28;20173;-94
2022/01/12 11:14:51;;;;;;;66.67;31.83;;;3.80;99.90;;;;;;4993633;28;20187;-94
2022/01/12 11:17:18;;;;;;;67.87;33.70;;;3.70;99.90;;;;;;4995398;28;20182;-94
2022/01/12 11:20:18;;;;;;;71.23;32.13;;;3.70;99.90;;;;;;4985880;28;20223;-94
2022/01/12 11:22:43;;;;;;;68.90;34.10;;;3.70;99.90;;;;;;4950833;28;20593;-94
2022/01/12 11:25:33;;;;;;;71.13;32.70;;;3.70;99.90;;;;;;4974847;28;20211;-93
2022/01/12 11:28:03;;;;;;;68.00;32.03;;;3.80;99.90;;;;;;4974961;28;20201;-96
2022/01/12 11:30:33;;;;;;;61.20;31.37;;;3.90;99.90;;;;;;4972915;28;20212;-93
2022/01/12 11:33:01;;;;;;;65.37;31.70;;;3.90;99.90;;;;;;4974815;28;20205;-95
2022/01/12 11:35:29;;;;;;;67.50;31.77;;;3.90;99.90;;;;;;4976176;28;20211;-94
2022/01/12 11:37:59;;;;;;;65.00;32.87;;;3.90;99.90;;;;;;4977499;28;20219;-94
2022/01/12 11:40:36;;;;;;;78.13;33.63;;;3.90;99.90;;;;;;4977336;28;20176;-94
2022/01/12 11:43:27;;;;;;;71.07;33.60;;;3.90;99.90;;;;;;4977527;28;20187;-93
2022/01/12 11:46:18;;;;;;;73.00;34.53;;;3.90;99.90;;;;;;4976834;28;20184;-94
2022/01/12 11:48:47;;;;;;;65.07;32.20;;;3.90;99.90;;;;;;4978018;28;20619;-94
2022/01/12 11:51:15;;;;;;;70.67;34.27;;;3.90;99.90;;;;;;4978238;28;20199;-95
2022/01/12 11:53:55;;;;;;;67.13;32.93;;;3.90;99.90;;;;;;4977428;28;20310;-94
2022/01/12 11:56:24;;;;;;;64.33;32.27;;;4.00;99.90;;;;;;4995513;28;20191;-95
2022/01/12 11:58:56;;;;;;;66.13;32.60;;;4.00;99.90;;;;;;4997752;28;20211;-94
2022/01/12 12:01:22;;;;;;;57.23;30.23;;;4.00;99.90;;;;;;4997004;28;20553;-94
2022/01/12 12:04:03;;;;;;;61.40;30.30;;;4.10;99.90;;;;;;4997455;28;20570;-93
2022/01/12 12:06:29;;;;;;;55.67;30.10;;;4.10;99.90;;;;;;4997239;28;20172;-94
2022/01/12 12:09:12;;;;;;;58.97;31.20;;;4.20;99.90;;;;;;4996707;28;20180;-93
2022/01/12 12:11:37;;;;;;;59.07;31.00;;;4.10;99.90;;;;;;4996531;28;20172;-94
2022/01/12 12:14:08;;;;;;;54.17;29.73;;;4.10;99.90;;;;;;4996680;28;20184;-94
2022/01/12 12:16:35;;;;;;;56.87;29.97;;;4.10;99.90;;;;;;4993739;28;20271;-93
2022/01/12 12:19:03;;;;;;;51.53;29.23;;;4.10;99.90;;;;;;4977225;28;20236;-93
2022/01/12 12:21:30;;;;;;;54.10;30.47;;;4.10;99.90;;;;;;4976989;28;20191;-93
2022/01/12 12:24:15;;;;;;;57.73;29.10;;;4.10;99.90;;;;;;4976997;28;20188;-95
2022/01/12 12:26:51;;;;;;;59.27;30.37;;;4.10;99.90;;;;;;4976764;28;20168;-93
2022/01/12 12:29:25;;;;;;;52.67;29.07;;;4.10;99.90;;;;;;4977252;28;20173;-93
2022/01/12 12:31:52;;;;;;;60.00;30.37;;;4.10;99.90;;;;;;4988175;28;20535;-93
2022/01/12 12:34:22;;;;;;;57.53;30.50;;;4.10;99.90;;;;;;4996891;28;20192;-95
2022/01/12 12:36:57;;;;;;;58.27;28.57;;;4.20;99.90;;;;;;4996674;28;20180;-94
2022/01/12 12:39:24;;;;;;;51.90;26.00;;;4.10;99.90;;;;;;4998173;28;20642;-96
2022/01/12 12:41:50;;;;;;;44.37;24.40;;;4.20;99.90;;;;;;4997896;28;20172;-93
2022/01/12 12:44:27;;;;;;;48.70;25.33;;;4.20;99.90;;;;;;4996353;28;20176;-93
2022/01/12 12:47:06;;;;;;;50.00;24.83;;;4.10;99.90;;;;;;4990766;28;20615;-95
2022/01/12 12:49:36;;;;;;;46.53;24.70;;;4.20;99.90;;;;;;4960806;28;20352;-96
2022/01/12 12:52:03;;;;;;;45.23;24.00;;;4.10;99.90;;;;;;4977369;28;20620;-94
2022/01/12 12:54:29;;;;;;;43.97;23.00;;;4.10;99.90;;;;;;4976066;28;20235;-94
2022/01/12 12:57:06;;;;;;;45.07;23.10;;;4.00;99.90;;;;;;4976538;28;20550;-92
2022/01/12 12:59:34;;;;;;;45.83;21.87;;;4.00;99.90;;;;;;4991271;28;20222;-93
2022/01/12 13:02:12;;;;;;;43.90;23.53;;;4.00;99.90;;;;;;4980697;28;20200;-93
2022/01/12 13:04:39;;;;;;;48.27;22.70;;;4.10;99.90;;;;;;4975777;28;20681;-94
2022/01/12 13:07:17;;;;;;;43.90;23.37;;;4.10;99.90;;;;;;4976004;28;20203;-93
2022/01/12 13:09:43;;;;;;;45.47;23.63;;;4.00;99.90;;;;;;4975513;28;20271;-92
2022/01/12 13:12:09;;;;;;;46.57;24.07;;;4.00;99.90;;;;;;4976130;28;20216;-92
2022/01/12 13:14:47;;;;;;;46.70;21.93;;;4.00;99.90;;;;;;4975768;28;20176;-94
2022/01/12 13:17:24;;;;;;;43.03;20.43;;;4.10;99.90;;;;;;4975844;28;20183;-93
2022/01/12 13:22:29;;;;;;;37.17;19.23;;;4.00;99.90;;;;;;4977584;28;20161;-94
2022/01/12 13:24:57;;;;;;;33.43;17.57;;;4.00;99.90;;;;;;4975460;28;20177;-93
2022/01/12 13:27:27;;;;;;;32.53;17.13;;;4.10;99.90;;;;;;4975802;28;20212;-93
2022/01/12 13:29:53;;;;;;;28.93;16.40;;;4.00;99.90;;;;;;4975677;28;20192;-95
2022/01/12 13:32:20;;;;;;;31.53;16.97;;;4.00;99.90;;;;;;4975863;28;20586;-95
2022/01/12 13:35:09;;;;;;;31.23;17.23;;;4.00;99.90;;;;;;4976405;28;20210;-95
2022/01/12 13:37:36;;;;;;;30.93;16.70;;;4.00;99.90;;;;;;4956900;28;20177;-96
2022/01/12 13:40:21;;;;;;;29.37;16.63;;;4.10;99.90;;;;;;4967155;28;20331;-95
2022/01/12 13:42:53;;;;;;;29.80;16.07;;;4.10;99.90;;;;;;4995030;28;20218;-96
2022/01/12 13:45:42;;;;;;;28.00;16.60;;;4.10;99.90;;;;;;4994805;28;20194;-94
2022/01/12 13:48:18;;;;;;;31.13;16.43;;;4.00;99.90;;;;;;4995447;28;20180;-96
2022/01/12 13:50:52;;;;;;;34.80;17.83;;;4.00;99.90;;;;;;4982796;28;20189;-96
2022/01/12 13:53:19;;;;;;;35.67;17.73;;;4.00;99.90;;;;;;4976162;28;20173;-96
2022/01/12 13:55:54;;;;;;;33.87;16.23;;;4.00;99.90;;;;;;4976427;28;20631;-95
2022/01/12 13:58:28;;;;;;;33.87;15.50;;;3.90;99.90;;;;;;4975749;28;20219;-96
2022/01/12 14:01:10;;;;;;;29.43;14.80;;;4.00;99.90;;;;;;4975454;28;20311;-95
2022/01/12 14:03:43;;;;;;;29.57;12.87;;;4.00;99.90;;;;;;4974810;28;20279;-94
2022/01/12 14:06:24;;;;;;;24.63;14.30;;;4.00;99.90;;;;;;4975084;28;20172;-95